This is the latest recevied weather packets stored in our database for station/object KK7MLS-13. If no packets are shown the sender has not sent any weather packets the latest 10 day(s).
| Time | Temp. | Humidity | Pressure | Rain* | Wind** | Luminosity | Snow |
|---|---|---|---|---|---|---|---|
| 1777774221 | 18.89° C | 68% | 1012.9 hPa | 0 mm | - | 38 W/m² | - |
| 1777773615 | 20° C | 65% | 1013 hPa | 0 mm | - | 43 W/m² | - |
| 1777767554 | 22.78° C | 56% | 1011.9 hPa | 0 mm | - | 209 W/m² | - |
| 1777765433 | 23.89° C | 52% | 1011.9 hPa | 0 mm | - | 211 W/m² | - |
| 1777764523 | 23.89° C | 51% | 1012.1 hPa | 0 mm | - | 331 W/m² | - |
| 1777764219 | 25° C | 50% | 1012.2 hPa | 0 mm | - | 383 W/m² | - |
| 1777763614 | 24.44° C | 48% | 1012.3 hPa | 0 mm | - | 418 W/m² | - |
| 1777762403 | 23.89° C | 51% | 1012.5 hPa | 0 mm | - | 362 W/m² | - |
| 1777760889 | 24.44° C | 49% | 1013 hPa | 0 mm | - | 460 W/m² | - |
| 1777760586 | 23.89° C | 55% | 1013.1 hPa | 0 mm | - | 478 W/m² | - |
| 1777759978 | 22.78° C | 52% | 1013.1 hPa | 0 mm | - | 535 W/m² | - |
| 1777759371 | 21.67° C | 54% | 1013.4 hPa | 0 mm | - | 546 W/m² | - |
| 1777758765 | 21.11° C | 54% | 1013.3 hPa | 0 mm | - | 581 W/m² | - |
| 1777758462 | 21.11° C | 57% | 1013.5 hPa | 0 mm | - | 563 W/m² | - |
| 1777757856 | 21.11° C | 58% | 1013.6 hPa | 0 mm | - | 511 W/m² | - |
| 1777757252 | 21.67° C | 56% | 1013.8 hPa | 0 mm | - | 526 W/m² | - |
| 1777756950 | 21.67° C | 55% | 1014.1 hPa | 0 mm | - | 520 W/m² | - |
| 1777756646 | 20.56° C | 61% | 1014 hPa | 0 mm | - | 613 W/m² | - |
| 1777756343 | 20.56° C | 57% | 1014.2 hPa | 0 mm | - | 644 W/m² | - |
| 1777756040 | 19.44° C | 60% | 1014 hPa | 0 mm | - | 679 W/m² | - |
| 1777754223 | 18.89° C | 61% | 1014.6 hPa | 0 mm | - | 607 W/m² | - |
| 1777753015 | 18.33° C | 66% | 1014.7 hPa | 0 mm | - | 594 W/m² | - |
| 1777752712 | 17.78° C | 66% | 1015 hPa | 0 mm | - | 758 W/m² | - |
| 1777752408 | 18.33° C | 65% | 1015.2 hPa | 0 mm | - | 767 W/m² | - |
| 1777752104 | 18.33° C | 66% | 1015.2 hPa | 0 mm | - | 661 W/m² | - |
* Rain latest hour (hover to see other rain measurements)
** Current wind speed in m/s (hover to see current wind gust speed)